Terminal Aerodrome Forecast
Issued by NWS Wilmington, OH

Current Version | Previous Version | Graphics & Text | Print | Product List | Glossary On
Versions: 1 2 3 4 5 6 7 8 9 10 11 12 13 14 15 16 17 18 19 20 21 22 23 24 25 26 27 28 29 30 31
895
FTUS41 KILN 020904 AAB
TAFCVG
TAF AMD
KCVG 020904Z 0209/0312 28006KT P6SM SCT015 BKN025
      TEMPO 0209/0211 5SM BR OVC005
     FM021500 26008KT P6SM BKN025
     FM022100 28008KT P6SM VCSH OVC040
     FM030100 36006KT 5SM BR OVC020
      TEMPO 0308/0312 2SM BR SCT020 OVC080=

USA.gov is the U.S. government's official web portal to all federal, state and local government web resources and services.